Time;durP1;ratioP1;P1;durP2;ratioP2;P2;SDS_P1;SDS_P2;PMS_P1;PMS_P2;Temp;Humidity;BMP_temperature;BMP_pressure;BME280_temperature;BME280_humidity;BME280_pressure;Samples;Min_cycle;Max_cycle;Signal;HPM_P1;HPM_P2
2023/03/09 00:00:58;;;;;;;0.80;0.80;;;;;;;13.17;47.28;99332.06;5090818;28;20209;-72
2023/03/09 00:03:25;;;;;;;0.80;0.80;;;;;;;13.60;47.23;99415.06;5055373;28;20202;-74
2023/03/09 00:05:57;;;;;;;0.85;0.85;;;;;;;13.61;47.16;99411.59;5090710;28;20198;-74
2023/03/09 00:08:24;;;;;;;0.80;0.80;;;;;;;13.58;47.60;99414.22;5090140;28;20201;-73
2023/03/09 00:10:51;;;;;;;0.60;0.60;;;;;;;13.64;47.70;99406.34;5089910;28;20933;-73
2023/03/09 00:13:18;;;;;;;0.80;0.80;;;;;;;13.68;48.13;99402.84;5090206;28;20295;-73
2023/03/09 00:15:49;;;;;;;0.70;0.70;;;;;;;13.68;48.22;99400.25;5038443;28;20213;-74
2023/03/09 00:18:18;;;;;;;0.77;0.77;;;;;;;13.54;47.95;99363.03;5071177;28;20692;-74
2023/03/09 00:20:44;;;;;;;0.80;0.80;;;;;;;13.60;48.04;99383.78;5090379;28;20688;-73
2023/03/09 00:23:11;;;;;;;0.73;0.73;;;;;;;13.62;48.58;99382.94;5090265;28;20210;-73
2023/03/09 00:25:38;;;;;;;0.70;0.70;;;;;;;13.62;48.39;99382.06;5039048;28;20198;-74
2023/03/09 00:28:06;;;;;;;1.10;1.10;;;;;;;13.60;48.18;99349.94;5090401;28;20213;-73
2023/03/09 00:30:32;;;;;;;0.70;0.70;;;;;;;13.74;48.11;99374.13;5054726;28;20191;-74
2023/03/09 00:32:59;;;;;;;0.80;0.80;;;;;;;13.67;48.39;99381.13;5090324;28;20319;-73
2023/03/09 00:35:28;;;;;;;0.70;0.70;;;;;;;13.64;48.83;99375.09;5090551;28;20209;-73
2023/03/09 00:37:54;;;;;;;0.70;0.70;;;;;;;13.51;49.57;99363.06;5090612;28;20229;-73
2023/03/09 00:40:21;;;;;;;0.95;0.95;;;;;;;13.55;49.35;99375.19;5090349;28;20199;-72
2023/03/09 00:42:48;;;;;;;0.70;0.70;;;;;;;13.46;49.40;99357.00;5089487;28;20190;-73
2023/03/09 00:45:15;;;;;;;0.73;0.73;;;;;;;13.51;49.81;99360.44;5090466;28;20198;-74
2023/03/09 00:47:42;;;;;;;0.80;0.80;;;;;;;13.61;49.85;99367.31;5089759;28;20555;-74
2023/03/09 00:50:10;;;;;;;0.80;0.80;;;;;;;13.59;49.83;99364.69;5090515;28;20194;-73
2023/03/09 00:52:38;;;;;;;0.70;0.70;;;;;;;13.69;50.07;99378.53;5054889;28;20202;-74
2023/03/09 00:55:06;;;;;;;0.60;0.60;;;;;;;13.68;50.48;99372.44;5090200;28;20658;-73
2023/03/09 00:57:32;;;;;;;0.70;0.70;;;;;;;13.53;49.88;99348.25;5036754;28;20222;-73
2023/03/09 00:59:59;;;;;;;1.00;1.00;;;;;;;13.67;50.41;99359.41;5090816;28;20206;-74
2023/03/09 01:02:27;;;;;;;0.70;0.70;;;;;;;13.72;50.08;99355.91;5093564;28;20194;-72
2023/03/09 01:04:54;;;;;;;0.80;0.80;;;;;;;13.71;50.51;99364.59;5093470;28;20198;-73
2023/03/09 01:07:22;;;;;;;0.70;0.70;;;;;;;13.59;50.81;99375.13;5093419;28;20213;-73
2023/03/09 01:09:50;;;;;;;0.70;0.70;;;;;;;13.62;50.69;99376.84;5093739;28;20208;-73
2023/03/09 01:12:17;;;;;;;1.42;1.42;;;;;;;13.58;50.86;99364.72;5093269;28;20207;-72
2023/03/09 01:14:44;;;;;;;0.70;0.70;;;;;;;13.64;50.92;99369.88;5084883;28;20195;-73
2023/03/09 01:17:10;;;;;;;0.70;0.70;;;;;;;13.63;51.31;99373.34;5084580;28;20206;-73
2023/03/09 01:19:38;;;;;;;0.63;0.63;;;;;;;13.55;51.44;99368.22;5093408;28;20225;-74
2023/03/09 01:22:05;;;;;;;0.60;0.60;;;;;;;13.58;51.05;99370.81;5075782;28;20572;-73
2023/03/09 01:24:32;;;;;;;0.68;0.68;;;;;;;13.59;51.18;99362.09;5092904;28;20540;-74
2023/03/09 01:27:00;;;;;;;0.70;0.70;;;;;;;13.67;51.31;99351.59;5093643;28;20201;-73
2023/03/09 01:29:27;;;;;;;0.60;0.60;;;;;;;13.49;51.51;99341.34;5093000;28;20585;-74
2023/03/09 01:31:53;;;;;;;0.60;0.60;;;;;;;13.53;51.88;99350.88;5093448;28;20276;-72
2023/03/09 01:34:20;;;;;;;0.80;0.80;;;;;;;13.42;51.64;99337.94;5092970;28;20202;-72
2023/03/09 01:36:47;;;;;;;0.70;0.70;;;;;;;13.42;51.80;99348.34;5057743;28;20213;-73
2023/03/09 01:39:14;;;;;;;0.82;0.82;;;;;;;13.33;51.85;99341.50;5092818;28;20218;-74
2023/03/09 01:41:41;;;;;;;0.68;0.68;;;;;;;13.35;52.54;99350.16;5092599;28;20198;-72
2023/03/09 01:44:11;;;;;;;0.70;0.70;;;;;;;13.35;52.31;99347.56;5093078;28;20198;-73
2023/03/09 01:46:50;;;;;;;0.60;0.60;;;;;;;13.37;52.52;99340.59;5093088;28;20186;-73
2023/03/09 01:49:27;;;;;;;0.70;0.70;;;;;;;13.38;51.96;99326.69;5092290;28;20660;-73
2023/03/09 01:52:01;;;;;;;0.60;0.60;;;;;;;13.47;52.32;99337.91;5092736;28;20576;-73
2023/03/09 01:54:33;;;;;;;0.70;0.70;;;;;;;13.49;51.95;99338.75;5090313;28;20209;-73
2023/03/09 01:57:07;;;;;;;0.77;0.77;;;;;;;13.51;52.00;99332.66;5092626;28;20249;-73
2023/03/09 01:59:37;;;;;;;0.70;0.70;;;;;;;13.45;52.13;99337.91;5092381;28;20218;-73
2023/03/09 02:02:04;;;;;;;0.70;0.70;;;;;;;13.32;52.50;99333.69;5092152;28;20202;-73
2023/03/09 02:04:36;;;;;;;0.60;0.60;;;;;;;13.26;52.56;99328.53;5091858;28;20202;-73
2023/03/09 02:07:04;;;;;;;1.50;1.40;;;;;;;13.09;53.01;99320.84;5092642;28;20225;-73
2023/03/09 02:09:38;;;;;;;0.75;0.75;;;;;;;13.03;53.60;99318.25;5090660;28;20215;-73
2023/03/09 02:12:07;;;;;;;0.70;0.70;;;;;;;13.15;53.65;99343.38;5090854;28;20202;-73
2023/03/09 02:14:36;;;;;;;0.65;0.65;;;;;;;13.21;53.58;99344.19;5047074;28;20635;-73
2023/03/09 02:17:03;;;;;;;0.65;0.65;;;;;;;13.21;53.23;99338.97;5092204;28;20194;-73
2023/03/09 02:19:44;;;;;;;0.80;0.80;;;;;;;13.25;53.68;99343.28;5091911;28;20222;-73
2023/03/09 02:22:11;;;;;;;0.70;0.70;;;;;;;13.22;54.08;99335.50;5036671;28;20206;-73
2023/03/09 02:24:48;;;;;;;0.70;0.70;;;;;;;13.27;53.73;99343.28;5035361;28;20210;-72
2023/03/09 02:27:19;;;;;;;0.70;0.70;;;;;;;13.04;53.52;99288.78;5092309;28;20189;-76
2023/03/09 02:29:46;;;;;;;0.63;0.63;;;;;;;13.24;53.87;99331.16;5091953;28;20692;-76
2023/03/09 02:32:13;;;;;;;0.75;0.75;;;;;;;13.32;53.71;99331.09;5092055;28;20202;-76
2023/03/09 02:34:40;;;;;;;0.70;0.70;;;;;;;13.37;53.36;99324.97;5091846;28;20198;-75
2023/03/09 02:37:22;;;;;;;0.60;0.60;;;;;;;13.37;53.67;99322.38;5055240;28;20214;-76
2023/03/09 02:39:51;;;;;;;0.70;0.70;;;;;;;13.26;54.01;99305.13;5091730;28;20222;-76
2023/03/09 02:42:20;;;;;;;0.60;0.60;;;;;;;13.19;53.88;99312.13;5091835;28;20206;-76
2023/03/09 02:44:48;;;;;;;0.90;0.90;;;;;;;13.21;53.89;99307.75;5091372;28;20269;-76
2023/03/09 02:47:19;;;;;;;0.60;0.60;;;;;;;13.35;53.87;99331.06;5091546;28;20209;-75
2023/03/09 02:49:45;;;;;;;0.70;0.70;;;;;;;13.31;53.73;99325.00;5091604;28;20218;-75
2023/03/09 02:52:12;;;;;;;0.70;0.70;;;;;;;13.32;53.40;99318.94;5091096;28;20205;-75
2023/03/09 02:54:39;;;;;;;1.38;1.27;;;;;;;13.32;53.87;99318.94;5091690;28;20202;-75
2023/03/09 02:57:06;;;;;;;0.70;0.70;;;;;;;13.38;54.11;99320.59;5091151;28;20343;-76
2023/03/09 02:59:34;;;;;;;0.60;0.60;;;;;;;13.30;53.86;99297.28;5091770;28;20319;-76
2023/03/09 03:02:01;;;;;;;0.70;0.70;;;;;;;13.36;53.91;99318.03;5091573;28;20616;-76
2023/03/09 03:04:28;;;;;;;0.68;0.68;;;;;;;13.41;53.82;99311.03;5091301;28;20202;-76
2023/03/09 03:06:55;;;;;;;1.98;1.70;;;;;;;13.29;53.53;99295.53;5091503;28;20679;-76
2023/03/09 03:09:22;;;;;;;0.70;0.70;;;;;;;13.43;53.87;99308.44;5087925;28;20563;-76
2023/03/09 03:11:48;;;;;;;0.70;0.70;;;;;;;13.45;53.09;99295.41;5091423;28;20602;-75
2023/03/09 03:14:15;;;;;;;0.70;0.70;;;;;;;13.48;53.62;99308.41;5091175;28;20214;-75
2023/03/09 03:16:43;;;;;;;1.40;1.35;;;;;;;13.35;53.54;99278.97;5091181;28;20217;-76
2023/03/09 03:19:10;;;;;;;0.60;0.60;;;;;;;13.41;53.91;99294.56;5055220;28;20214;-75
2023/03/09 03:21:37;;;;;;;0.70;0.70;;;;;;;13.28;54.41;99277.31;5091622;28;20194;-76
2023/03/09 03:24:04;;;;;;;0.68;0.68;;;;;;;13.31;54.24;99298.97;5055881;28;20206;-76
2023/03/09 03:26:31;;;;;;;0.60;0.60;;;;;;;13.18;54.48;99279.16;5055160;28;20198;-76
2023/03/09 03:28:57;;;;;;;1.00;1.00;;;;;;;13.29;54.48;99294.66;5091125;28;20236;-76
2023/03/09 03:31:24;;;;;;;0.60;0.60;;;;;;;13.29;54.50;99302.47;5083764;28;20197;-76
2023/03/09 03:33:52;;;;;;;0.70;0.70;;;;;;;13.26;54.71;99285.16;5088926;28;20209;-76
2023/03/09 03:36:19;;;;;;;0.70;0.70;;;;;;;13.30;54.33;99299.88;5086325;28;20282;-75
2023/03/09 03:38:46;;;;;;;0.70;0.70;;;;;;;13.20;53.85;99279.97;5089288;28;20710;-76
2023/03/09 03:41:13;;;;;;;0.63;0.63;;;;;;;13.30;54.40;99307.69;5091016;28;20260;-76
2023/03/09 03:43:39;;;;;;;0.70;0.70;;;;;;;13.33;54.21;99305.06;5089357;28;20221;-76
2023/03/09 03:46:06;;;;;;;0.70;0.70;;;;;;;13.28;54.57;99308.56;5090743;28;20213;-76
2023/03/09 03:48:34;;;;;;;0.80;0.80;;;;;;;13.11;54.62;99290.47;5090579;28;20290;-77
2023/03/09 03:51:02;;;;;;;0.70;0.70;;;;;;;13.20;54.40;99307.75;5087809;28;20205;-75
2023/03/09 03:53:30;;;;;;;0.70;0.70;;;;;;;13.19;54.09;99299.09;5090036;28;20191;-77
2023/03/09 03:55:56;;;;;;;0.70;0.70;;;;;;;13.29;54.25;99295.53;5090741;28;20218;-76
2023/03/09 03:58:23;;;;;;;0.60;0.60;;;;;;;13.31;54.13;99309.38;5090218;28;20222;-79
2023/03/09 04:00:50;;;;;;;0.70;0.70;;;;;;;12.82;54.18;99211.75;5090551;28;20205;-76
2023/03/09 04:03:17;;;;;;;0.60;0.60;;;;;;;13.45;54.65;99298.84;5038828;28;20198;-76
2023/03/09 04:05:43;;;;;;;1.13;1.13;;;;;;;13.44;54.33;99304.09;5090288;28;20255;-76
2023/03/09 04:08:12;;;;;;;0.70;0.70;;;;;;;13.42;53.73;99291.06;5089744;28;20202;-76
2023/03/09 04:10:39;;;;;;;0.90;0.90;;;;;;;13.45;53.63;99303.22;5090181;28;20209;-75
2023/03/09 04:13:06;;;;;;;0.75;0.75;;;;;;;13.42;53.67;99298.88;5089952;28;20650;-76
2023/03/09 04:15:33;;;;;;;0.70;0.70;;;;;;;13.35;53.63;99277.25;5090515;28;20210;-76
2023/03/09 04:17:59;;;;;;;0.80;0.80;;;;;;;13.32;54.08;99259.06;5089901;28;20197;-77
2023/03/09 04:20:26;;;;;;;0.70;0.70;;;;;;;13.57;53.28;99305.69;5089379;28;20224;-77
2023/03/09 04:22:54;;;;;;;0.70;0.70;;;;;;;13.43;53.23;99271.97;5090677;28;20198;-76
2023/03/09 04:25:22;;;;;;;0.70;0.70;;;;;;;13.62;52.56;99303.91;5091079;28;20237;-74
2023/03/09 04:27:49;;;;;;;0.60;0.60;;;;;;;13.57;52.42;99300.47;5090592;28;20560;-73
2023/03/09 04:30:20;;;;;;;0.70;0.70;;;;;;;13.48;52.92;99292.78;5088264;28;20210;-76
2023/03/09 04:32:47;;;;;;;0.80;0.80;;;;;;;13.68;52.43;99306.47;5090118;28;20202;-74
2023/03/09 04:35:14;;;;;;;0.60;0.60;;;;;;;13.59;52.65;99299.59;5089107;28;20202;-75
2023/03/09 04:37:41;;;;;;;0.70;0.70;;;;;;;13.57;52.60;99310.91;5091200;28;20206;-75
2023/03/09 04:40:09;;;;;;;0.60;0.60;;;;;;;13.63;52.65;99308.22;5093910;28;20222;-76
2023/03/09 04:42:37;;;;;;;0.70;0.70;;;;;;;13.64;52.81;99304.75;5042024;28;20194;-76
2023/03/09 04:45:05;;;;;;;0.70;0.70;;;;;;;13.45;53.19;99278.03;5093565;28;20217;-76
2023/03/09 04:47:32;;;;;;;0.65;0.65;;;;;;;13.61;52.40;99295.25;5058833;28;20199;-75
2023/03/09 04:49:59;;;;;;;0.60;0.60;;;;;;;13.58;53.04;99292.66;5093847;28;20209;-75
2023/03/09 04:52:26;;;;;;;0.70;0.70;;;;;;;13.60;52.19;99290.03;5093177;28;20586;-74
2023/03/09 04:54:54;;;;;;;1.20;1.20;;;;;;;13.67;52.04;99286.47;5094216;28;20198;-74
2023/03/09 04:57:21;;;;;;;0.70;0.70;;;;;;;13.59;52.63;99267.50;5093479;28;20237;-76
2023/03/09 04:59:49;;;;;;;0.80;0.80;;;;;;;13.73;52.84;99286.44;5093171;28;20638;-74
2023/03/09 05:02:16;;;;;;;0.70;0.70;;;;;;;13.71;52.51;99286.44;5093223;28;20681;-73
2023/03/09 05:04:43;;;;;;;0.60;0.60;;;;;;;13.71;52.38;99289.06;5093715;28;20230;-74
2023/03/09 05:07:10;;;;;;;0.75;0.75;;;;;;;13.51;52.52;99259.75;5093402;28;20190;-74
2023/03/09 05:09:37;;;;;;;0.70;0.70;;;;;;;13.74;52.45;99288.16;5093425;28;20623;-75
2023/03/09 05:12:04;;;;;;;0.68;0.68;;;;;;;13.56;51.76;99246.66;5093522;28;20201;-74
2023/03/09 05:14:31;;;;;;;0.80;0.80;;;;;;;13.82;52.34;99286.34;5093357;28;20213;-74
2023/03/09 05:17:00;;;;;;;0.60;0.60;;;;;;;13.87;52.13;99290.63;5057926;28;20207;-73
2023/03/09 05:19:27;;;;;;;0.70;0.70;;;;;;;13.75;52.00;99279.47;5093717;28;20232;-74
2023/03/09 05:21:54;;;;;;;0.80;0.80;;;;;;;13.79;51.65;99291.59;5093715;28;20205;-74
2023/03/09 05:24:21;;;;;;;0.60;0.60;;;;;;;13.75;52.35;99300.31;5092935;28;20267;-75
2023/03/09 05:26:48;;;;;;;0.60;0.60;;;;;;;13.61;52.46;99268.31;5093298;28;20190;-74
2023/03/09 05:29:14;;;;;;;0.70;0.70;;;;;;;13.71;52.50;99296.88;5057391;28;20210;-74
2023/03/09 05:31:41;;;;;;;0.70;0.70;;;;;;;13.72;52.68;99285.56;5092959;28;20190;-75
2023/03/09 05:34:09;;;;;;;0.70;0.70;;;;;;;13.66;52.25;99274.38;5041208;28;20210;-75
2023/03/09 05:36:36;;;;;;;0.60;0.60;;;;;;;13.70;52.73;99279.50;5092891;28;20616;-75
2023/03/09 05:39:03;;;;;;;0.70;0.70;;;;;;;13.66;52.86;99290.81;5092999;28;20201;-74
2023/03/09 05:41:30;;;;;;;0.70;0.70;;;;;;;13.56;52.71;99259.69;5092604;28;20559;-75
2023/03/09 05:43:59;;;;;;;0.60;0.60;;;;;;;13.77;52.79;99295.94;5090151;28;20579;-74
2023/03/09 05:46:26;;;;;;;0.70;0.70;;;;;;;13.81;52.66;99295.03;5090452;28;20209;-73
2023/03/09 05:48:53;;;;;;;0.77;0.77;;;;;;;13.89;52.32;99293.19;5092517;28;20206;-74
2023/03/09 05:51:21;;;;;;;0.60;0.60;;;;;;;14.00;52.01;99291.34;5092693;28;20213;-75
2023/03/09 05:53:48;;;;;;;0.77;0.77;;;;;;;14.10;51.67;99299.91;5092473;28;20194;-76
2023/03/09 05:56:14;;;;;;;0.60;0.60;;;;;;;14.23;50.97;99294.53;5092634;28;20202;-76
2023/03/09 05:58:41;;;;;;;0.60;0.60;;;;;;;14.44;50.76;99303.00;5089758;28;20238;-75
2023/03/09 06:01:18;;;;;;;0.70;0.70;;;;;;;14.69;49.85;99299.19;5089913;28;20226;-75
2023/03/09 06:03:45;;;;;;;0.60;0.60;;;;;;;14.77;49.95;99307.75;5085952;28;20665;-75
2023/03/09 06:06:12;;;;;;;0.90;0.90;;;;;;;14.88;49.35;99295.41;5078174;28;20199;-74
2023/03/09 06:08:40;;;;;;;0.70;0.70;;;;;;;15.23;49.61;99316.59;5092246;28;20202;-77
2023/03/09 06:11:07;;;;;;;0.70;0.70;;;;;;;15.35;48.95;99303.34;5092336;28;20198;-78
2023/03/09 06:13:34;;;;;;;0.70;0.70;;;;;;;15.34;48.61;99304.22;5092131;28;20209;-74
2023/03/09 06:16:03;;;;;;;0.60;0.60;;;;;;;15.53;49.00;99314.41;5092550;28;20209;-74
2023/03/09 06:18:30;;;;;;;0.70;0.70;;;;;;;15.57;48.28;99303.03;5056807;28;20198;-75
2023/03/09 06:21:00;;;;;;;0.60;0.60;;;;;;;15.72;48.07;99307.97;5091980;28;20229;-75
2023/03/09 06:23:27;;;;;;;0.60;0.60;;;;;;;15.69;48.02;99298.44;5091988;28;20275;-75
2023/03/09 06:25:55;;;;;;;0.70;0.70;;;;;;;15.60;47.82;99313.41;5092364;28;20696;-76
2023/03/09 06:28:23;;;;;;;0.60;0.60;;;;;;;15.51;47.92;99293.56;5077936;28;20209;-76
2023/03/09 06:30:50;;;;;;;0.65;0.65;;;;;;;15.54;47.94;99309.16;5084164;28;20217;-78
2023/03/09 06:33:16;;;;;;;0.70;0.70;;;;;;;15.52;47.96;99312.72;5092081;28;20214;-77
2023/03/09 06:35:43;;;;;;;0.80;0.80;;;;;;;15.53;47.99;99323.13;5091493;28;20198;-78
2023/03/09 06:38:10;;;;;;;0.60;0.60;;;;;;;15.63;48.23;99302.91;5092161;28;20205;-78
2023/03/09 06:40:37;;;;;;;0.60;0.60;;;;;;;15.70;47.95;99325.41;5092070;28;20245;-77
2023/03/09 06:43:06;;;;;;;0.60;0.60;;;;;;;15.68;49.08;99319.38;5091988;28;20209;-75
2023/03/09 06:45:33;;;;;;;0.63;0.63;;;;;;;15.75;48.36;99323.59;5091910;28;20285;-76
2023/03/09 06:47:59;;;;;;;0.70;0.70;;;;;;;15.76;51.09;99320.09;5092013;28;20206;-78
2023/03/09 06:50:27;;;;;;;0.70;0.70;;;;;;;15.74;47.85;99312.28;5091916;28;20198;-78
2023/03/09 06:52:54;;;;;;;0.70;0.70;;;;;;;15.67;48.31;99315.03;5092020;28;20210;-78
2023/03/09 06:55:20;;;;;;;0.70;0.70;;;;;;;15.76;47.98;99309.66;5091542;28;20198;-76
2023/03/09 06:57:47;;;;;;;0.70;0.70;;;;;;;15.76;48.23;99305.28;5090567;28;20222;-77
2023/03/09 07:00:16;;;;;;;0.60;0.60;;;;;;;15.84;48.27;99292.03;5077054;28;20716;-76
2023/03/09 07:02:43;;;;;;;1.98;1.88;;;;;;;15.95;47.90;99303.16;5091449;28;20205;-78
2023/03/09 07:05:11;;;;;;;0.70;0.70;;;;;;;15.98;47.58;99279.56;5091301;28;20567;-79
2023/03/09 07:07:38;;;;;;;0.70;0.70;;;;;;;16.15;47.29;99297.56;5091696;28;20208;-79
2023/03/09 07:10:05;;;;;;;0.70;0.70;;;;;;;16.31;47.35;99315.53;5091588;28;20217;-75
2023/03/09 07:12:32;;;;;;;0.70;0.70;;;;;;;16.42;47.73;99317.06;5055925;28;20203;-74
2023/03/09 07:14:59;;;;;;;0.80;0.80;;;;;;;16.51;47.13;99316.88;5091523;28;20206;-75
2023/03/09 07:17:27;;;;;;;0.70;0.70;;;;;;;16.64;46.97;99326.22;5091391;28;20233;-77
2023/03/09 07:19:56;;;;;;;0.70;0.70;;;;;;;16.54;47.67;99296.75;5091348;28;20233;-78
2023/03/09 07:22:23;;;;;;;0.80;0.80;;;;;;;16.67;47.55;99310.44;5091326;28;20693;-74
2023/03/09 07:24:50;;;;;;;1.35;1.25;;;;;;;16.75;47.31;99309.38;5091589;28;20205;-75
2023/03/09 07:27:18;;;;;;;0.70;0.70;;;;;;;16.82;46.77;99318.81;5091423;28;20267;-79
2023/03/09 07:29:45;;;;;;;0.63;0.63;;;;;;;16.85;46.99;99312.66;5026415;28;20207;-75
2023/03/09 07:32:13;;;;;;;0.60;0.60;;;;;;;17.12;45.46;99332.13;5091210;28;20214;-74
2023/03/09 07:34:41;;;;;;;0.70;0.70;;;;;;;17.18;45.23;99337.19;5091143;28;20641;-75
2023/03/09 07:37:07;;;;;;;0.70;0.70;;;;;;;17.22;45.20;99324.00;5091209;28;20205;-77
2023/03/09 07:39:34;;;;;;;0.70;0.70;;;;;;;17.24;45.34;99337.91;5091186;28;20201;-72
2023/03/09 07:42:01;;;;;;;0.68;0.68;;;;;;;17.19;46.11;99328.44;5039389;28;20209;-78
2023/03/09 07:44:28;;;;;;;0.80;0.80;;;;;;;17.34;45.51;99328.94;5091060;28;20202;-77
2023/03/09 07:46:55;;;;;;;0.80;0.80;;;;;;;17.39;45.65;99305.22;5090994;28;20209;-76
2023/03/09 07:49:22;;;;;;;0.80;0.80;;;;;;;17.48;46.13;99314.63;5091338;28;20225;-76
2023/03/09 07:51:50;;;;;;;0.60;0.60;;;;;;;17.42;46.40;99306.91;5091011;28;20676;-78
2023/03/09 07:54:17;;;;;;;0.70;0.70;;;;;;;17.58;45.46;99317.03;5091243;28;20206;-77
2023/03/09 07:56:47;;;;;;;0.68;0.68;;;;;;;17.61;45.33;99305.59;5090769;28;20198;-76
2023/03/09 07:59:15;;;;;;;0.65;0.65;;;;;;;17.58;45.49;99269.84;5055323;28;20206;-76
2023/03/09 08:01:42;;;;;;;0.60;0.60;;;;;;;17.76;45.37;99300.78;5090699;28;20234;-76
2023/03/09 08:04:08;;;;;;;0.70;0.70;;;;;;;17.76;45.57;99276.34;5076485;28;20227;-76
2023/03/09 08:06:39;;;;;;;0.70;0.70;;;;;;;18.28;45.07;99305.47;5090962;28;20201;-75
2023/03/09 08:09:07;;;;;;;0.70;0.70;;;;;;;18.33;45.18;99300.94;5090909;28;20209;-75
2023/03/09 08:11:34;;;;;;;0.70;0.70;;;;;;;19.03;43.53;99290.97;5094325;28;20207;-73
2023/03/09 08:14:01;;;;;;;0.60;0.60;;;;;;;19.35;42.69;99304.81;5094629;28;20206;-75
2023/03/09 08:16:28;;;;;;;0.63;0.63;;;;;;;19.22;42.99;99289.47;5094845;28;20552;-75
2023/03/09 08:18:55;;;;;;;0.70;0.70;;;;;;;19.16;42.97;99301.94;5080528;28;20234;-75
2023/03/09 08:21:23;;;;;;;0.70;0.70;;;;;;;19.43;42.55;99282.69;5094764;28;20260;-75
2023/03/09 08:23:50;;;;;;;0.80;0.80;;;;;;;19.18;44.07;99282.59;5094581;28;20214;-73
2023/03/09 08:26:18;;;;;;;0.65;0.65;;;;;;;19.43;43.75;99294.94;5094662;28;20206;-73
2023/03/09 08:28:46;;;;;;;0.70;0.70;;;;;;;19.57;43.57;99297.97;5059010;28;20213;-75
2023/03/09 08:31:16;;;;;;;0.70;0.70;;;;;;;19.66;43.16;99295.03;5090253;28;20211;-76
2023/03/09 08:33:43;;;;;;;1.10;1.10;;;;;;;19.24;43.75;99292.91;5085609;28;20245;-76
2023/03/09 08:36:12;;;;;;;0.60;0.60;;;;;;;19.11;44.43;99299.47;5094603;28;20202;-76
2023/03/09 08:38:39;;;;;;;1.40;1.35;;;;;;;19.11;44.36;99294.22;5094683;28;20230;-75
2023/03/09 08:41:05;;;;;;;1.30;1.27;;;;;;;19.31;44.25;99289.16;5094272;28;20241;-75
2023/03/09 08:43:34;;;;;;;0.65;0.65;;;;;;;19.37;43.78;99274.09;5094674;28;20205;-75
2023/03/09 08:46:00;;;;;;;0.60;0.60;;;;;;;19.25;44.25;99285.88;5094495;28;20202;-76
2023/03/09 08:48:27;;;;;;;0.60;0.60;;;;;;;19.51;43.53;99287.69;5094518;28;20202;-75
2023/03/09 08:50:54;;;;;;;0.70;0.70;;;;;;;19.58;43.77;99297.06;5094646;28;20206;-76
2023/03/09 08:53:21;;;;;;;0.90;0.90;;;;;;;19.21;44.27;99255.34;5094348;28;20244;-80
2023/03/09 08:55:48;;;;;;;0.60;0.60;;;;;;;19.33;44.07;99282.06;5094415;28;20209;-78
2023/03/09 08:58:15;;;;;;;0.70;0.70;;;;;;;19.26;45.03;99282.34;5094216;28;20237;-78
2023/03/09 09:00:43;;;;;;;0.70;0.70;;;;;;;19.44;44.73;99280.91;5094244;28;20233;-78
2023/03/09 09:03:10;;;;;;;0.68;0.68;;;;;;;19.33;44.69;99261.97;5094425;28;20201;-79
2023/03/09 09:05:37;;;;;;;0.60;0.60;;;;;;;19.66;43.56;99271.34;5094083;28;20197;-78
2023/03/09 09:08:04;;;;;;;0.82;0.82;;;;;;;19.85;43.49;99293.47;5094268;28;20198;-78
2023/03/09 09:10:31;;;;;;;0.60;0.60;;;;;;;19.93;43.42;99291.44;5094088;28;20244;-78
2023/03/09 09:12:58;;;;;;;0.65;0.65;;;;;;;20.04;43.73;99283.16;5094069;28;20202;-78
2023/03/09 09:15:25;;;;;;;0.70;0.70;;;;;;;19.96;43.80;99285.22;5093928;28;20628;-77
2023/03/09 09:17:54;;;;;;;0.60;0.60;;;;;;;19.99;43.43;99288.59;5094125;28;20230;-78
2023/03/09 09:20:21;;;;;;;0.70;0.70;;;;;;;20.12;43.24;99287.22;5093245;28;20622;-75
2023/03/09 09:22:48;;;;;;;0.60;0.60;;;;;;;20.24;43.22;99292.03;5093753;28;20201;-79
2023/03/09 09:25:15;;;;;;;0.70;0.70;;;;;;;20.55;43.06;99286.50;5093836;28;20202;-77
2023/03/09 09:27:42;;;;;;;0.57;0.57;;;;;;;20.70;42.42;99283.28;5093849;28;20198;-77
2023/03/09 09:30:10;;;;;;;0.73;0.73;;;;;;;20.57;42.44;99281.19;5093733;28;20208;-77
2023/03/09 09:32:38;;;;;;;0.70;0.70;;;;;;;20.26;42.81;99263.88;5093612;28;20335;-78
2023/03/09 09:35:07;;;;;;;0.68;0.68;;;;;;;20.13;43.03;99281.06;5093697;28;20232;-78
2023/03/09 09:37:34;;;;;;;0.70;0.70;;;;;;;20.15;43.69;99275.75;5058196;28;20285;-77
2023/03/09 09:40:01;;;;;;;0.75;0.75;;;;;;;20.30;42.70;99258.56;5093771;28;20684;-79
2023/03/09 09:42:33;;;;;;;0.70;0.70;;;;;;;20.25;43.15;99250.78;5093650;28;20225;-77
2023/03/09 09:45:02;;;;;;;0.70;0.70;;;;;;;20.10;43.94;99262.75;5093553;28;20201;-77
2023/03/09 09:47:31;;;;;;;0.70;0.70;;;;;;;20.24;44.25;99260.47;5093670;28;20530;-77
2023/03/09 09:50:01;;;;;;;0.60;0.60;;;;;;;20.57;43.45;99265.41;5093512;28;20206;-78
2023/03/09 09:52:51;;;;;;;0.75;0.75;;;;;;;20.40;42.67;99257.28;5093560;28;20198;-78
2023/03/09 09:55:23;;;;;;;0.70;0.70;;;;;;;20.35;42.32;99257.44;5093675;28;20205;-77
2023/03/09 09:58:01;;;;;;;0.70;0.70;;;;;;;20.36;42.86;99253.06;5093312;28;20242;-76
2023/03/09 10:00:33;;;;;;;0.70;0.70;;;;;;;20.49;41.96;99249.03;5092468;28;20201;-76
2023/03/09 10:03:13;;;;;;;0.60;0.60;;;;;;;20.38;41.89;99230.13;5092698;28;20213;-78
2023/03/09 10:05:49;;;;;;;0.80;0.80;;;;;;;20.47;41.80;99233.28;5089819;28;20197;-76
2023/03/09 10:08:43;;;;;;;0.63;0.63;;;;;;;20.70;41.33;99237.66;5092952;28;20205;-78
2023/03/09 10:11:19;;;;;;;0.60;0.60;;;;;;;20.86;41.12;99203.66;5010619;28;20208;-78
2023/03/09 10:13:49;;;;;;;0.60;0.60;;;;;;;21.06;41.04;99223.00;5011039;28;20193;-78
2023/03/09 10:16:22;;;;;;;0.70;0.70;;;;;;;21.24;40.70;99224.91;5010668;28;20224;-77
2023/03/09 10:18:54;;;;;;;0.68;0.68;;;;;;;20.99;41.13;99224.16;4962281;28;20204;-78
2023/03/09 10:21:24;;;;;;;0.70;0.70;;;;;;;21.23;41.04;99224.94;4994614;28;20232;-78
2023/03/09 10:23:54;;;;;;;0.55;0.55;;;;;;;21.34;40.58;99214.81;5010787;28;20209;-80
2023/03/09 10:26:40;;;;;;;0.70;0.70;;;;;;;21.34;40.63;99208.66;5010778;28;20201;-79
2023/03/09 10:29:17;;;;;;;0.68;0.68;;;;;;;21.54;40.78;99217.47;4952346;28;20293;-79
2023/03/09 10:31:49;;;;;;;0.70;0.70;;;;;;;21.51;39.70;99208.84;4952402;28;20203;-77
2023/03/09 10:34:18;;;;;;;0.70;0.70;;;;;;;21.46;40.17;99177.38;4951294;28;20211;-77
2023/03/09 10:37:01;;;;;;;0.70;0.70;;;;;;;21.72;39.85;99195.53;4952209;29;20207;-76
2023/03/09 10:39:34;;;;;;;0.70;0.70;;;;;;;21.70;39.34;99118.22;4908351;28;20304;-76
2023/03/09 10:42:15;;;;;;;0.70;0.70;;;;;;;21.51;39.78;99179.81;4951955;29;20226;-77
2023/03/09 10:44:47;;;;;;;0.70;0.70;;;;;;;21.12;40.15;99161.25;4951827;29;20222;-77
2023/03/09 10:47:14;;;;;;;0.70;0.70;;;;;;;21.28;39.84;99170.25;4975531;28;20645;-78
2023/03/09 10:49:40;;;;;;;0.60;0.60;;;;;;;21.69;39.32;99166.66;5029462;28;20299;-77
2023/03/09 10:52:18;;;;;;;0.70;0.70;;;;;;;21.77;40.07;99153.09;5029761;28;20199;-77
2023/03/09 10:54:46;;;;;;;0.63;0.63;;;;;;;21.75;39.41;99162.88;5029602;28;20200;-77
2023/03/09 10:57:23;;;;;;;0.60;0.60;;;;;;;21.56;39.35;99133.81;5029602;28;20232;-78
2023/03/09 10:59:56;;;;;;;0.70;0.70;;;;;;;21.82;40.33;99152.91;5029203;28;20235;-75
2023/03/09 11:02:30;;;;;;;0.70;0.70;;;;;;;22.07;39.05;99156.16;4996204;28;20793;-75
2023/03/09 11:04:57;;;;;;;0.90;0.90;;;;;;;21.67;39.73;99141.25;5028992;28;20200;-75
2023/03/09 11:07:27;;;;;;;0.70;0.70;;;;;;;21.42;39.46;99143.28;5087535;28;20229;-75
2023/03/09 11:09:56;;;;;;;0.60;0.60;;;;;;;21.60;39.33;99145.09;5091465;28;20221;-76
2023/03/09 11:12:24;;;;;;;0.70;0.70;;;;;;;21.74;38.98;99151.47;5091337;28;20299;-78
2023/03/09 11:14:53;;;;;;;0.60;0.60;;;;;;;21.70;38.83;99141.13;5091026;28;20198;-77
2023/03/09 11:17:38;;;;;;;0.70;0.70;;;;;;;22.02;37.98;99135.25;5090983;28;20209;-77
2023/03/09 11:20:33;;;;;;;0.85;0.85;;;;;;;21.84;37.65;99130.78;5090860;28;20236;-77
2023/03/09 11:23:23;;;;;;;0.60;0.60;;;;;;;21.38;39.68;99116.19;5090848;28;20222;-76
2023/03/09 11:26:01;;;;;;;0.68;0.68;;;;;;;21.81;38.05;99116.88;5091209;28;20206;-77
2023/03/09 11:28:39;;;;;;;0.70;0.70;;;;;;;21.48;38.41;99037.50;5090976;28;20202;-77
2023/03/09 11:31:13;;;;;;;0.60;0.60;;;;;;;21.70;38.19;99112.09;5090929;28;20234;-78
2023/03/09 11:33:40;;;;;;;0.70;0.70;;;;;;;21.09;39.54;99072.59;5091103;28;20194;-77
2023/03/09 11:36:13;;;;;;;0.70;0.70;;;;;;;21.43;38.70;99113.34;5091243;28;20205;-78
2023/03/09 11:38:43;;;;;;;0.70;0.70;;;;;;;21.30;39.31;99091.09;5091170;28;20202;-74
2023/03/09 11:41:17;;;;;;;0.63;0.63;;;;;;;21.22;38.94;99063.25;5091284;28;20553;-77